createdAt,value
2023-02-15T00:00:46.856Z,102936.19
2023-02-15T00:05:41.345Z,102936.69
2023-02-15T00:10:35.698Z,102921.84
2023-02-15T00:15:27.564Z,102905.25
2023-02-15T00:20:21.217Z,102913.81
2023-02-15T00:25:10.887Z,102908.59
2023-02-15T00:30:05.149Z,102905.66
2023-02-15T00:34:58.264Z,102903.78
2023-02-15T00:39:48.861Z,102907.25
2023-02-15T00:44:41.981Z,102905.50
2023-02-15T00:49:38.006Z,102894.81
2023-02-15T00:54:30.914Z,102903.91
2023-02-15T00:59:21.773Z,102895.97
2023-02-15T01:04:12.733Z,102896.72
2023-02-15T01:09:08.056Z,102893.13
2023-02-15T01:14:04.836Z,102884.56
2023-02-15T01:18:56.023Z,102885.00
2023-02-15T01:23:47.644Z,102876.38
2023-02-15T01:28:54.690Z,102866.88
2023-02-15T01:33:49.341Z,102863.34
2023-02-15T01:38:41.925Z,102865.84
2023-02-15T01:43:49.636Z,102854.66
2023-02-15T01:48:50.463Z,102859.59
2023-02-15T01:53:47.745Z,102859.06
2023-02-15T01:58:47.550Z,102845.91
2023-02-15T02:03:49.601Z,102848.28
2023-02-15T02:08:42.291Z,102844.72
2023-02-15T02:13:33.517Z,102840.13
2023-02-15T02:18:32.922Z,102820.97
2023-02-15T02:23:52.902Z,102816.47
2023-02-15T02:28:58.905Z,102816.41
2023-02-15T02:34:01.334Z,102815.53
2023-02-15T02:39:08.575Z,102809.56
2023-02-15T02:44:05.782Z,102797.97
2023-02-15T02:48:59.789Z,102787.50
2023-02-15T02:53:56.420Z,102776.88
2023-02-15T02:58:54.803Z,102779.09
2023-02-15T03:03:49.214Z,102779.81
2023-02-15T03:08:49.670Z,102771.00
2023-02-15T03:13:41.823Z,102771.63
2023-02-15T03:18:40.205Z,102775.81
2023-02-15T03:23:32.594Z,102783.41
2023-02-15T03:28:33.615Z,102775.59
2023-02-15T03:33:29.030Z,102765.28
2023-02-15T03:38:22.749Z,102764.50
2023-02-15T03:43:17.990Z,102760.13
2023-02-15T03:48:16.244Z,102755.59
2023-02-15T03:53:08.198Z,102752.06
2023-02-15T03:58:12.559Z,102747.84
2023-02-15T04:03:31.160Z,102738.97
2023-02-15T04:08:21.628Z,102732.88
2023-02-15T04:13:28.369Z,102738.56
2023-02-15T04:18:33.860Z,102732.38
2023-02-15T04:23:39.812Z,102733.13
2023-02-15T04:28:39.466Z,102730.50
2023-02-15T04:33:32.881Z,102731.09
2023-02-15T04:38:29.799Z,102725.66
2023-02-15T04:43:20.016Z,102723.72
2023-02-15T04:48:14.294Z,102723.59
2023-02-15T04:53:07.544Z,102719.97
2023-02-15T04:57:57.673Z,102714.53
2023-02-15T05:02:48.578Z,102716.75
2023-02-15T05:07:40.237Z,102718.34
2023-02-15T05:12:35.283Z,102717.47
2023-02-15T05:17:26.817Z,102713.88
2023-02-15T05:22:22.435Z,102707.88
2023-02-15T05:27:28.559Z,102701.69
2023-02-15T05:32:29.640Z,102689.34
2023-02-15T05:37:24.084Z,102686.59
2023-02-15T05:42:16.824Z,102688.16
2023-02-15T05:47:08.696Z,102679.63
2023-02-15T05:52:12.586Z,102682.50
2023-02-15T05:57:22.754Z,102681.72
2023-02-15T06:02:15.069Z,102677.78
2023-02-15T06:07:15.220Z,102677.78
2023-02-15T06:12:11.864Z,102675.94
2023-02-15T06:17:04.392Z,102689.47
2023-02-15T06:21:55.653Z,102670.84
2023-02-15T06:26:49.592Z,102694.50
2023-02-15T06:31:43.600Z,102690.25
2023-02-15T06:36:38.432Z,102683.28
2023-02-15T06:41:32.223Z,102658.66
2023-02-15T06:46:26.862Z,102673.66
2023-02-15T06:51:25.424Z,102678.53
2023-02-15T06:56:19.170Z,102670.50
2023-02-15T07:01:22.113Z,102679.06
2023-02-15T07:06:15.743Z,102667.66
2023-02-15T07:11:18.821Z,102659.81
2023-02-15T07:16:10.143Z,102658.13
2023-02-15T07:21:01.736Z,102672.09
2023-02-15T07:26:01.870Z,102671.22
2023-02-15T07:30:59.333Z,102667.13
2023-02-15T07:35:59.220Z,102657.84
2023-02-15T07:40:54.702Z,102641.59
2023-02-15T07:46:21.329Z,102649.22
2023-02-15T07:51:35.098Z,102650.50
2023-02-15T07:56:29.545Z,102637.69
2023-02-15T08:01:36.313Z,102645.16
2023-02-15T08:06:35.775Z,102633.00
2023-02-15T08:11:46.110Z,102646.78
2023-02-15T08:16:46.202Z,102645.88
2023-02-15T08:21:41.191Z,102638.63
2023-02-15T08:26:41.869Z,102642.81
2023-02-15T08:31:34.350Z,102630.66
2023-02-15T08:36:33.830Z,102628.75
2023-02-15T08:41:32.254Z,102631.28
2023-02-15T08:46:48.284Z,102626.00
2023-02-15T08:51:44.222Z,102628.94
2023-02-15T08:56:38.448Z,102613.72
2023-02-15T09:01:31.244Z,102628.25
2023-02-15T09:06:22.610Z,102618.59
2023-02-15T09:11:28.088Z,102620.50
2023-02-15T09:16:21.989Z,102628.09
2023-02-15T09:21:24.652Z,102617.31
2023-02-15T09:26:20.054Z,102613.22
2023-02-15T09:31:17.848Z,102601.44
2023-02-15T09:36:13.110Z,102616.25
2023-02-15T09:41:43.998Z,102622.91
2023-02-15T09:47:00.854Z,102619.28
2023-02-15T09:52:36.083Z,102623.09
2023-02-15T09:57:39.950Z,102618.69
2023-02-15T10:02:52.032Z,102621.69
2023-02-15T10:08:02.084Z,102602.44
2023-02-15T10:13:24.472Z,102622.00
2023-02-15T10:18:42.536Z,102630.22
2023-02-15T10:24:06.470Z,102624.50
2023-02-15T10:29:12.171Z,102629.19
2023-02-15T10:34:20.063Z,102618.44
2023-02-15T10:39:25.963Z,102630.69
2023-02-15T10:44:38.339Z,102618.44
2023-02-15T10:50:03.377Z,102619.19
2023-02-15T10:55:02.755Z,102597.00
2023-02-15T11:00:08.685Z,102601.03
2023-02-15T11:05:19.516Z,102590.41
2023-02-15T11:10:38.193Z,102577.59
2023-02-15T11:15:38.427Z,102573.06
2023-02-15T11:20:39.866Z,102574.50
2023-02-15T11:25:37.955Z,102574.88
2023-02-15T11:30:40.338Z,102586.28
2023-02-15T11:35:42.796Z,102569.47
2023-02-15T11:40:46.304Z,102565.31
2023-02-15T11:45:47.800Z,102557.72
2023-02-15T11:50:45.880Z,102493.75
2023-02-15T11:55:39.143Z,102540.59
2023-02-15T12:00:45.933Z,102541.50
2023-02-15T12:05:47.720Z,102526.19
2023-02-15T12:10:56.994Z,102517.94
2023-02-15T12:15:56.406Z,102518.16
2023-02-15T12:20:54.231Z,102506.22
2023-02-15T12:25:55.839Z,102496.03
2023-02-15T12:30:48.866Z,102503.03
2023-02-15T12:35:44.772Z,102504.72
2023-02-15T12:40:43.514Z,102509.09
2023-02-15T12:45:38.862Z,102514.22
2023-02-15T12:50:35.439Z,102505.53
2023-02-15T12:55:30.977Z,102499.59
2023-02-15T13:00:40.792Z,102499.66
2023-02-15T13:05:40.231Z,102491.88
2023-02-15T13:10:38.351Z,102486.50
2023-02-15T13:15:45.368Z,102488.31
2023-02-15T13:20:42.094Z,102493.00
2023-02-15T13:25:37.584Z,102485.16
2023-02-15T13:30:35.249Z,102477.69
2023-02-15T13:35:43.399Z,102477.56
2023-02-15T13:40:50.302Z,102473.13
2023-02-15T13:45:52.462Z,102467.06
2023-02-15T13:51:14.860Z,102444.41
2023-02-15T13:56:18.870Z,102453.13
2023-02-15T14:01:16.866Z,102452.28
2023-02-15T14:06:33.458Z,102454.75
2023-02-15T14:11:47.641Z,102448.69
2023-02-15T14:17:05.815Z,102447.88
2023-02-15T14:22:14.172Z,102438.31
2023-02-15T14:27:18.598Z,102447.88
2023-02-15T14:32:16.170Z,102462.75
2023-02-15T14:37:14.829Z,102465.38
2023-02-15T14:42:12.425Z,102453.97
2023-02-15T14:47:14.453Z,102435.59
2023-02-15T14:52:16.064Z,102455.50
2023-02-15T14:57:44.599Z,102455.41
2023-02-15T15:02:54.409Z,102444.06
2023-02-15T15:08:06.114Z,102447.88
2023-02-15T15:13:00.269Z,102457.16
2023-02-15T15:18:06.743Z,102442.53
2023-02-15T15:23:45.865Z,102445.44
2023-02-15T15:29:00.295Z,102449.69
2023-02-15T15:34:21.973Z,102433.13
2023-02-15T15:39:39.665Z,102446.97
2023-02-15T15:45:14.923Z,102427.41
2023-02-15T15:50:27.941Z,102429.47
2023-02-15T15:55:32.280Z,102421.38
2023-02-15T16:00:39.544Z,102436.22
2023-02-15T16:05:39.504Z,102422.25
2023-02-15T16:10:40.538Z,102413.38
2023-02-15T16:15:40.170Z,102417.59
2023-02-15T16:20:43.295Z,102406.16
2023-02-15T16:26:04.361Z,102407.94
2023-02-15T16:31:13.052Z,102409.44
2023-02-15T16:36:10.888Z,102412.72
2023-02-15T16:41:04.883Z,102407.25
2023-02-15T16:46:07.088Z,102402.91
2023-02-15T16:51:03.075Z,102400.13
2023-02-15T16:56:11.988Z,102402.59
2023-02-15T17:01:26.821Z,102412.72
2023-02-15T17:06:37.168Z,102408.19
2023-02-15T17:11:41.110Z,102402.75
2023-02-15T17:16:37.777Z,102419.03
2023-02-15T17:21:37.533Z,102429.19
2023-02-15T17:26:39.573Z,102433.41
2023-02-15T17:31:37.385Z,102422.00
2023-02-15T17:36:32.541Z,102423.56
2023-02-15T17:41:23.570Z,102417.38
2023-02-15T17:46:21.850Z,102408.50
2023-02-15T17:51:18.444Z,102423.97
2023-02-15T17:56:14.486Z,102416.00
2023-02-15T18:01:24.128Z,102430.53
2023-02-15T18:06:30.150Z,102424.28
2023-02-15T18:11:34.895Z,102430.66
2023-02-15T18:16:31.187Z,102432.19
2023-02-15T18:21:42.162Z,102433.88
2023-02-15T18:26:34.271Z,102427.78
2023-02-15T18:31:30.376Z,102437.69
2023-02-15T18:36:38.972Z,102440.13
2023-02-15T18:41:39.233Z,102420.84
2023-02-15T18:46:32.940Z,102433.97
2023-02-15T18:51:27.990Z,102436.47
2023-02-15T18:56:26.347Z,102436.41
2023-02-15T19:01:18.916Z,102419.59
2023-02-15T19:06:14.982Z,102446.66
2023-02-15T19:11:07.801Z,102423.78
2023-02-15T19:16:35.794Z,102430.75
2023-02-15T19:21:36.230Z,102430.56
2023-02-15T19:26:43.155Z,102410.91
2023-02-15T19:31:55.435Z,102440.34
2023-02-15T19:36:49.293Z,102428.25
2023-02-15T19:41:48.112Z,102428.84
2023-02-15T19:46:44.251Z,102423.28
2023-02-15T19:51:36.666Z,102422.50
2023-02-15T19:56:30.568Z,102424.88
2023-02-15T20:01:29.746Z,102424.03
2023-02-15T20:06:24.285Z,102420.16
2023-02-15T20:11:28.048Z,102427.88
2023-02-15T20:16:27.616Z,102440.75
2023-02-15T20:21:22.561Z,102438.78
2023-02-15T20:26:19.556Z,102425.34
2023-02-15T20:31:22.132Z,102434.91
2023-02-15T20:36:19.562Z,102429.56
2023-02-15T20:41:37.484Z,102430.41
2023-02-15T20:46:31.839Z,102415.41
2023-02-15T20:51:24.943Z,102413.59
2023-02-15T20:56:26.843Z,102418.13
2023-02-15T21:01:22.755Z,102430.00
2023-02-15T21:06:20.929Z,102433.59
2023-02-15T21:11:33.015Z,102424.84
2023-02-15T21:16:25.529Z,102428.94
2023-02-15T21:21:28.059Z,102429.69
2023-02-15T21:26:20.191Z,102432.94
2023-02-15T21:31:26.115Z,102429.50
2023-02-15T21:36:26.413Z,102428.63
2023-02-15T21:41:31.208Z,102425.91
2023-02-15T21:46:37.580Z,102425.75
2023-02-15T21:51:47.631Z,102425.81
2023-02-15T21:56:41.710Z,102418.06
2023-02-15T22:01:38.767Z,102424.88
2023-02-15T22:06:32.745Z,102430.81
2023-02-15T22:11:25.996Z,102420.69
2023-02-15T22:16:18.262Z,102420.22
2023-02-15T22:21:08.228Z,102413.41
2023-02-15T22:26:02.807Z,102415.97
2023-02-15T22:30:56.474Z,102422.78
2023-02-15T22:36:02.398Z,102429.00
2023-02-15T22:40:57.595Z,102429.13
2023-02-15T22:45:51.121Z,102425.53
2023-02-15T22:50:43.596Z,102423.69
2023-02-15T22:55:39.812Z,102425.41
2023-02-15T23:00:31.214Z,102420.94
2023-02-15T23:05:25.047Z,102427.75
2023-02-15T23:15:26.536Z,102420.72
2023-02-15T23:20:18.302Z,102425.75
2023-02-15T23:25:15.408Z,102423.03
2023-02-15T23:30:17.450Z,102423.13
2023-02-15T23:35:16.179Z,102423.91
2023-02-15T23:40:19.071Z,102418.69
2023-02-15T23:45:21.940Z,102421.09
2023-02-15T23:50:19.477Z,102423.59
2023-02-15T23:55:14.506Z,102420.13
